Time;durP1;ratioP1;P1;durP2;ratioP2;P2;SDS_P1;SDS_P2;PMS_P1;PMS_P2;Temp;Humidity;BMP_temperature;BMP_pressure;BME280_temperature;BME280_humidity;BME280_pressure;Samples;Min_cycle;Max_cycle;Signal;HPM_P1;HPM_P2
2021/12/25 00:02:18;;;;;;;0.98;0.50;;;7.10;99.90;;;;;;5019188;28;20459;-91
2021/12/25 00:04:45;;;;;;;1.00;0.20;;;7.20;99.90;;;;;;5019221;28;20049;-92
2021/12/25 00:07:17;;;;;;;1.20;0.50;;;7.10;99.90;;;;;;5019229;28;20077;-92
2021/12/25 00:09:45;;;;;;;1.38;0.50;;;7.00;99.90;;;;;;5019337;28;20389;-92
2021/12/25 00:12:14;;;;;;;0.95;0.40;;;7.30;99.90;;;;;;5019554;28;20579;-92
2021/12/25 00:14:44;;;;;;;1.52;0.45;;;6.80;99.90;;;;;;5019679;28;20081;-92
2021/12/25 00:17:11;;;;;;;0.60;0.40;;;7.10;99.90;;;;;;5019738;28;20050;-93
2021/12/25 00:19:38;;;;;;;4.18;0.50;;;6.90;99.90;;;;;;5019215;28;20050;-92
2021/12/25 00:22:09;;;;;;;1.52;0.70;;;7.40;99.90;;;;;;5019047;28;20104;-93
2021/12/25 00:24:42;;;;;;;3.15;0.50;;;7.30;99.90;;;;;;5019006;28;20061;-91
2021/12/25 00:27:37;;;;;;;1.65;0.40;;;7.20;99.90;;;;;;5018675;28;20096;-93
2021/12/25 00:30:26;;;;;;;0.90;0.50;;;7.40;99.90;;;;;;5019497;28;20132;-92
2021/12/25 00:33:00;;;;;;;1.55;0.43;;;6.10;99.90;;;;;;5019544;28;20073;-92
2021/12/25 00:35:27;;;;;;;2.38;0.32;;;7.50;99.90;;;;;;5019373;28;20060;-90
2021/12/25 00:37:56;;;;;;;2.60;0.28;;;7.20;99.90;;;;;;5018743;28;20140;-91
2021/12/25 00:40:23;;;;;;;2.08;0.60;;;7.20;99.90;;;;;;5016571;28;20046;-91
2021/12/25 00:42:51;;;;;;;0.45;0.30;;;6.90;99.90;;;;;;5017495;28;20046;-92
2021/12/25 00:45:22;;;;;;;1.10;0.30;;;7.50;99.90;;;;;;5018003;28;20050;-92
2021/12/25 00:47:49;;;;;;;3.40;0.70;;;7.20;99.90;;;;;;5019221;28;20046;-90
2021/12/25 00:50:17;;;;;;;2.65;0.50;;;7.20;99.90;;;;;;5030216;28;20101;-91
2021/12/25 00:52:51;;;;;;;1.30;0.52;;;7.20;99.90;;;;;;5038613;28;20049;-92
2021/12/25 00:55:25;;;;;;;5.47;1.27;;;5.60;99.90;;;;;;5038771;28;20122;-89
2021/12/25 00:57:53;;;;;;;1.48;0.60;;;7.20;99.90;;;;;;5038920;28;20080;-92
2021/12/25 01:00:24;;;;;;;1.80;0.77;;;7.40;99.90;;;;;;5035705;28;20072;-92
2021/12/25 01:02:53;;;;;;;1.02;0.57;;;7.20;99.90;;;;;;5038833;28;20055;-92
2021/12/25 01:05:21;;;;;;;5.28;0.70;;;6.70;99.90;;;;;;5039225;28;20049;-92
2021/12/25 01:07:48;;;;;;;4.40;0.30;;;7.10;99.90;;;;;;5039112;28;20474;-91
2021/12/25 01:10:19;;;;;;;1.30;0.55;;;7.40;99.90;;;;;;5038292;28;20049;-92
2021/12/25 01:13:00;;;;;;;1.08;0.32;;;7.10;99.90;;;;;;5038076;28;20083;-92
2021/12/25 01:15:37;;;;;;;2.03;0.30;;;8.40;99.90;;;;;;5038043;28;20488;-92
2021/12/25 01:18:39;;;;;;;3.38;0.70;;;7.60;99.90;;;;;;5038329;28;20073;-93
2021/12/25 01:24:17;;;;;;;3.80;1.10;;;7.50;99.90;;;;;;5031686;28;20419;-93
2021/12/25 01:29:48;;;;;;;1.42;0.68;;;7.30;99.90;;;;;;4980694;28;20039;-92
2021/12/25 01:33:02;;;;;;;1.70;0.50;;;7.30;99.90;;;;;;5030179;28;20077;-93
2021/12/25 01:35:48;;;;;;;3.25;0.80;;;8.30;99.90;;;;;;5041722;28;20053;-93
2021/12/25 01:38:38;;;;;;;1.10;0.30;;;7.20;99.90;;;;;;5053259;28;20044;-91
2021/12/25 01:41:16;;;;;;;2.90;0.35;;;7.50;99.90;;;;;;5054865;28;20072;-90
2021/12/25 01:49:17;;;;;;;1.70;0.40;;;7.10;99.90;;;;;;5041556;28;20051;-91
2021/12/25 01:51:46;;;;;;;2.67;0.45;;;7.20;99.90;;;;;;5040569;28;20075;-91
2021/12/25 01:54:13;;;;;;;4.50;0.45;;;7.70;99.90;;;;;;5040146;28;20056;-91
2021/12/25 01:56:41;;;;;;;0.60;0.30;;;7.20;99.90;;;;;;5040294;28;20045;-92
2021/12/25 01:59:11;;;;;;;2.25;0.55;;;7.20;99.90;;;;;;5040552;28;20483;-92
2021/12/25 02:01:39;;;;;;;4.20;0.30;;;7.30;99.90;;;;;;5041001;28;20048;-91
2021/12/25 02:04:07;;;;;;;1.98;0.25;;;7.30;99.90;;;;;;5040265;28;20512;-92
2021/12/25 02:06:36;;;;;;;2.97;0.30;;;7.30;99.90;;;;;;5040614;28;20057;-92
2021/12/25 02:09:05;;;;;;;3.90;0.50;;;7.10;99.90;;;;;;5040030;28;20466;-91
2021/12/25 02:11:33;;;;;;;2.88;1.20;;;7.40;99.90;;;;;;5039909;28;20080;-92
2021/12/25 02:14:02;;;;;;;3.03;0.65;;;7.30;99.90;;;;;;5040399;28;20049;-92
2021/12/25 02:16:40;;;;;;;1.90;0.90;;;7.50;99.90;;;;;;5040316;28;20064;-91
2021/12/25 02:19:14;;;;;;;0.70;0.30;;;7.20;99.90;;;;;;5040107;28;20045;-92
2021/12/25 02:21:44;;;;;;;2.60;0.52;;;7.20;99.90;;;;;;5039685;28;20510;-92
2021/12/25 02:24:13;;;;;;;1.63;0.40;;;7.10;99.90;;;;;;5039285;28;20056;-91
2021/12/25 02:26:43;;;;;;;10.35;0.50;;;7.50;99.90;;;;;;5039769;28;20056;-91
2021/12/25 02:29:10;;;;;;;5.18;0.70;;;7.00;99.90;;;;;;5039634;28;20048;-90
2021/12/25 02:31:38;;;;;;;2.45;0.60;;;7.00;99.90;;;;;;5038457;28;20474;-91
2021/12/25 02:34:05;;;;;;;1.42;0.43;;;7.30;99.90;;;;;;5037770;28;20107;-90
2021/12/25 02:36:32;;;;;;;2.15;0.30;;;7.10;99.90;;;;;;5039391;28;20128;-91
2021/12/25 02:39:01;;;;;;;1.08;0.30;;;7.00;99.90;;;;;;5039109;28;20103;-90
2021/12/25 02:41:28;;;;;;;1.60;0.38;;;7.30;99.90;;;;;;5039360;28;20136;-91
2021/12/25 02:43:56;;;;;;;5.07;0.40;;;7.10;99.90;;;;;;5037721;28;20132;-91
2021/12/25 02:46:24;;;;;;;1.20;0.47;;;7.20;99.90;;;;;;5038879;28;20052;-91
2021/12/25 02:48:53;;;;;;;4.55;0.40;;;7.00;99.90;;;;;;5039502;28;20045;-91
2021/12/25 02:51:23;;;;;;;1.50;0.43;;;7.00;99.90;;;;;;5038927;28;20045;-91
2021/12/25 02:53:50;;;;;;;1.95;0.30;;;7.10;99.90;;;;;;5038271;28;20120;-91
2021/12/25 02:56:19;;;;;;;2.35;0.20;;;7.10;99.90;;;;;;5038126;28;20049;-91
2021/12/25 02:58:49;;;;;;;1.48;0.60;;;7.30;99.90;;;;;;5038144;28;20454;-91
2021/12/25 03:01:18;;;;;;;0.57;0.20;;;6.10;99.90;;;;;;5038287;28;20132;-92
2021/12/25 03:03:46;;;;;;;3.63;0.70;;;7.10;99.90;;;;;;5037823;28;20140;-91
2021/12/25 03:06:13;;;;;;;2.28;0.50;;;7.50;99.90;;;;;;5037517;28;20136;-91
2021/12/25 03:08:43;;;;;;;1.02;0.30;;;7.00;99.90;;;;;;5037459;28;20053;-91
2021/12/25 03:11:13;;;;;;;1.95;0.40;;;7.00;99.90;;;;;;5024941;28;20054;-92
2021/12/25 03:13:46;;;;;;;0.90;0.38;;;7.10;99.90;;;;;;5018977;28;20057;-92
2021/12/25 03:16:14;;;;;;;2.13;0.40;;;7.00;99.90;;;;;;5018296;28;20046;-92
2021/12/25 03:18:47;;;;;;;2.25;0.40;;;7.30;99.90;;;;;;5018579;28;20046;-91
2021/12/25 03:21:17;;;;;;;1.08;0.20;;;7.20;99.90;;;;;;5017921;28;20042;-92
2021/12/25 03:23:50;;;;;;;1.00;0.50;;;7.00;99.90;;;;;;5018225;28;20064;-92
2021/12/25 03:26:17;;;;;;;1.05;0.57;;;7.00;99.90;;;;;;5017592;28;20062;-91
2021/12/25 03:28:50;;;;;;;1.38;0.20;;;7.30;99.90;;;;;;5018443;28;20054;-92
2021/12/25 03:31:21;;;;;;;1.73;0.50;;;7.00;99.90;;;;;;5024087;28;20050;-90
2021/12/25 03:33:50;;;;;;;8.02;0.95;;;6.90;99.90;;;;;;5034103;28;20068;-90
2021/12/25 03:36:17;;;;;;;0.95;0.30;;;6.90;99.90;;;;;;5034609;28;20064;-89
2021/12/25 03:38:45;;;;;;;1.20;0.38;;;6.90;99.90;;;;;;5033057;28;20061;-91
2021/12/25 03:41:13;;;;;;;0.47;0.20;;;6.90;99.90;;;;;;5019722;28;20086;-90
2021/12/25 03:43:41;;;;;;;0.98;0.32;;;7.10;99.90;;;;;;5017736;28;20056;-91
2021/12/25 03:46:18;;;;;;;2.63;1.00;;;7.00;99.90;;;;;;5017235;28;20053;-91
2021/12/25 04:00:00;;;;;;;4.13;0.43;;;6.90;99.90;;;;;;5017233;28;20191;-91
2021/12/25 04:02:35;;;;;;;1.15;0.50;;;7.00;99.90;;;;;;5017372;28;20053;-92
2021/12/25 04:05:04;;;;;;;0.32;0.20;;;7.10;99.90;;;;;;5017185;28;20052;-92
2021/12/25 04:10:28;;;;;;;1.48;0.38;;;6.90;99.90;;;;;;4975479;28;20050;-90
2021/12/25 04:12:56;;;;;;;0.57;0.20;;;6.90;99.90;;;;;;5007184;28;20046;-92
2021/12/25 04:15:23;;;;;;;0.25;0.25;;;6.90;99.90;;;;;;5017063;28;20064;-91
2021/12/25 04:17:52;;;;;;;2.22;0.30;;;7.10;99.90;;;;;;5017095;28;20054;-92
2021/12/25 04:20:20;;;;;;;1.48;0.45;;;7.10;99.90;;;;;;5016809;28;20112;-91
2021/12/25 04:22:53;;;;;;;0.25;0.15;;;6.90;99.90;;;;;;5016323;28;20090;-92
2021/12/25 04:25:26;;;;;;;3.50;0.50;;;6.90;99.90;;;;;;5016203;28;20421;-91
2021/12/25 04:27:53;;;;;;;4.88;0.52;;;7.00;99.90;;;;;;5015960;28;20108;-91
2021/12/25 04:30:37;;;;;;;1.23;0.40;;;6.90;99.90;;;;;;5016588;28;20046;-91
2021/12/25 05:03:43;;;;;;;5.88;1.05;;;6.90;99.90;;;;;;5035527;28;20219;-91
2021/12/25 05:06:14;;;;;;;4.95;1.35;;;7.00;99.90;;;;;;5035802;28;20045;-91
2021/12/25 05:08:43;;;;;;;5.50;1.17;;;6.90;99.90;;;;;;5035991;28;20053;-91
2021/12/25 05:11:12;;;;;;;5.30;1.42;;;6.90;99.90;;;;;;5035803;28;20053;-91
2021/12/25 05:13:39;;;;;;;1.90;0.82;;;7.00;99.90;;;;;;5034121;28;20053;-91
2021/12/25 05:16:06;;;;;;;3.95;0.95;;;7.70;99.90;;;;;;5017314;28;20058;-93
2021/12/25 05:18:33;;;;;;;2.58;0.70;;;7.20;99.90;;;;;;5016863;28;20061;-92
2021/12/25 05:21:00;;;;;;;1.70;0.82;;;6.90;99.90;;;;;;5016261;28;20050;-92
2021/12/25 05:23:29;;;;;;;4.50;1.92;;;6.80;99.90;;;;;;5015650;28;20056;-92
2021/12/25 05:25:56;;;;;;;9.15;1.60;;;6.80;99.90;;;;;;5016089;28;20050;-92
2021/12/25 05:28:27;;;;;;;2.22;0.98;;;6.90;99.90;;;;;;5016551;28;20046;-92
2021/12/25 05:30:55;;;;;;;4.93;1.00;;;6.90;99.90;;;;;;5016727;28;20046;-92
2021/12/25 05:33:23;;;;;;;7.93;1.83;;;6.80;99.90;;;;;;5033250;28;20034;-90
2021/12/25 05:35:50;;;;;;;4.38;0.98;;;6.80;99.90;;;;;;5033496;28;20050;-89
2021/12/25 05:38:18;;;;;;;10.80;2.47;;;6.80;99.90;;;;;;5033985;28;20054;-90
2021/12/25 05:40:50;;;;;;;2.95;0.85;;;7.10;99.90;;;;;;5025386;28;20145;-91
2021/12/25 05:43:17;;;;;;;3.53;1.10;;;7.40;99.90;;;;;;5017289;28;20046;-91
2021/12/25 05:45:46;;;;;;;2.72;0.80;;;7.00;99.90;;;;;;5016575;28;20056;-91
2021/12/25 05:48:14;;;;;;;2.30;0.77;;;6.80;99.90;;;;;;5015859;28;20054;-90
2021/12/25 05:50:41;;;;;;;1.98;0.60;;;6.90;99.90;;;;;;5015938;28;20053;-91
2021/12/25 05:53:08;;;;;;;3.50;1.10;;;7.00;99.90;;;;;;5016067;28;20046;-92
2021/12/25 05:55:35;;;;;;;3.80;0.95;;;6.80;99.90;;;;;;5015553;28;20054;-92
2021/12/25 05:58:07;;;;;;;3.03;0.75;;;6.80;99.90;;;;;;5014755;28;20049;-92
2021/12/25 06:00:39;;;;;;;3.42;0.70;;;6.80;99.90;;;;;;5016262;28;20398;-92
2021/12/25 06:03:06;;;;;;;1.23;0.60;;;6.70;99.90;;;;;;5016075;28;20057;-92
2021/12/25 06:05:34;;;;;;;2.55;0.75;;;7.70;99.90;;;;;;5015891;28;20082;-92
2021/12/25 06:08:02;;;;;;;2.47;0.50;;;6.70;99.90;;;;;;5017562;28;20042;-92
2021/12/25 06:10:29;;;;;;;2.13;0.57;;;6.70;99.90;;;;;;5019494;28;20096;-89
2021/12/25 06:12:59;;;;;;;2.10;0.70;;;7.00;99.90;;;;;;5019317;28;20097;-90
2021/12/25 06:15:28;;;;;;;;;;;6.70;99.90;;;;;;5019945;28;20057;-92
2021/12/25 06:17:55;;;;;;;2.20;0.57;;;6.70;99.90;;;;;;5019275;28;19925;-92
2021/12/25 06:20:23;;;;;;;1.17;0.63;;;6.70;99.90;;;;;;5018917;28;20053;-91
2021/12/25 06:22:53;;;;;;;4.32;0.88;;;6.70;99.90;;;;;;5018467;28;20046;-91
2021/12/25 06:25:20;;;;;;;2.55;0.40;;;7.00;99.90;;;;;;5017973;28;20054;-90
2021/12/25 06:27:47;;;;;;;3.95;1.35;;;7.10;99.90;;;;;;5018373;28;20054;-92
2021/12/25 06:30:15;;;;;;;4.10;1.10;;;6.60;99.90;;;;;;5019092;28;20057;-91
2021/12/25 06:32:43;;;;;;;5.70;1.65;;;6.80;99.90;;;;;;5019046;28;20053;-91
2021/12/25 06:35:12;;;;;;;5.50;1.52;;;6.60;99.90;;;;;;5018924;28;20046;-91
2021/12/25 06:37:42;;;;;;;2.00;0.95;;;6.70;99.90;;;;;;5030038;28;20117;-91
2021/12/25 06:40:11;;;;;;;1.98;0.85;;;6.80;99.90;;;;;;5037941;28;20049;-91
2021/12/25 06:42:38;;;;;;;6.00;1.90;;;6.50;99.90;;;;;;5038345;28;20053;-91
2021/12/25 06:45:07;;;;;;;3.90;1.25;;;6.70;99.90;;;;;;5038066;28;20049;-90
2021/12/25 06:47:35;;;;;;;8.73;2.17;;;6.80;99.90;;;;;;5038057;28;20488;-91
2021/12/25 06:50:07;;;;;;;7.97;2.23;;;6.60;99.90;;;;;;5037896;28;20046;-91
2021/12/25 06:52:35;;;;;;;2.95;1.40;;;6.50;99.90;;;;;;5038206;28;20050;-92
2021/12/25 06:55:02;;;;;;;3.83;1.50;;;6.60;99.90;;;;;;5038209;28;20088;-92
2021/12/25 06:57:29;;;;;;;5.38;1.38;;;6.50;99.90;;;;;;5038203;28;20083;-92
2021/12/25 06:59:56;;;;;;;5.13;2.03;;;6.40;99.90;;;;;;5038235;28;20050;-92
2021/12/25 07:02:24;;;;;;;4.03;1.23;;;6.40;99.90;;;;;;5038210;28;20410;-91
2021/12/25 07:04:52;;;;;;;3.20;1.38;;;6.40;99.90;;;;;;5038028;28;20049;-91
2021/12/25 07:07:23;;;;;;;5.22;1.55;;;6.50;99.90;;;;;;5037944;28;20128;-91
2021/12/25 07:09:53;;;;;;;5.13;1.67;;;6.50;99.90;;;;;;5037862;28;20049;-91
2021/12/25 07:12:23;;;;;;;4.32;1.98;;;6.50;99.90;;;;;;5037931;28;20060;-92
2021/12/25 07:14:51;;;;;;;3.90;1.75;;;6.30;99.90;;;;;;5037638;28;20061;-90
2021/12/25 07:17:18;;;;;;;3.97;1.55;;;6.50;99.90;;;;;;5037221;28;20488;-91
2021/12/25 07:19:45;;;;;;;8.07;2.33;;;6.20;99.90;;;;;;5032991;28;20082;-92
2021/12/25 07:22:13;;;;;;;12.23;2.20;;;6.20;99.90;;;;;;5037255;28;20056;-92
2021/12/25 07:24:41;;;;;;;10.02;2.28;;;6.10;99.90;;;;;;5036910;28;20526;-91
2021/12/25 07:27:08;;;;;;;8.80;2.65;;;6.10;99.90;;;;;;5036736;28;20066;-92
2021/12/25 07:29:37;;;;;;;5.50;1.25;;;6.30;99.90;;;;;;5037306;28;20072;-92
2021/12/25 07:32:04;;;;;;;6.57;1.57;;;6.30;99.90;;;;;;5037033;28;20049;-92
2021/12/25 07:34:32;;;;;;;2.97;1.17;;;6.30;99.90;;;;;;5040619;28;20033;-91
2021/12/25 07:37:05;;;;;;;3.78;0.90;;;6.10;99.90;;;;;;5055578;28;20121;-91
2021/12/25 07:39:32;;;;;;;3.47;1.25;;;6.10;99.90;;;;;;5055596;28;20077;-91
2021/12/25 07:42:01;;;;;;;3.63;0.90;;;6.00;99.90;;;;;;5056357;28;20040;-90
2021/12/25 07:44:28;;;;;;;1.55;0.75;;;6.30;99.90;;;;;;5047897;28;20057;-91
2021/12/25 07:46:55;;;;;;;5.95;1.38;;;6.40;99.90;;;;;;5038708;28;20103;-91
2021/12/25 07:49:23;;;;;;;2.25;0.32;;;6.50;99.90;;;;;;5036384;28;20053;-92
2021/12/25 07:51:51;;;;;;;2.90;1.02;;;6.20;99.90;;;;;;5036320;28;20072;-90
2021/12/25 07:54:19;;;;;;;4.38;0.90;;;6.40;99.90;;;;;;5036409;28;20049;-91
2021/12/25 07:56:47;;;;;;;5.70;0.85;;;6.10;99.90;;;;;;5036612;28;20133;-91
2021/12/25 07:59:16;;;;;;;2.53;0.88;;;6.10;99.90;;;;;;5036538;28;20064;-92
2021/12/25 08:01:44;;;;;;;1.10;0.52;;;6.10;99.90;;;;;;5036407;28;20132;-91
2021/12/25 08:04:11;;;;;;;6.35;0.93;;;6.00;99.90;;;;;;5036632;28;20049;-92
2021/12/25 08:06:40;;;;;;;2.97;1.25;;;5.90;99.90;;;;;;5036677;28;20076;-92
2021/12/25 08:09:07;;;;;;;2.03;0.90;;;5.90;99.90;;;;;;5036693;28;20484;-91
2021/12/25 08:11:36;;;;;;;3.33;1.73;;;5.90;99.90;;;;;;5027954;28;20370;-92
2021/12/25 08:14:08;;;;;;;4.93;2.20;;;6.00;99.90;;;;;;5035937;28;20076;-92
2021/12/25 08:16:38;;;;;;;5.45;2.25;;;6.30;99.90;;;;;;5028376;28;20471;-92
2021/12/25 08:19:05;;;;;;;5.15;1.65;;;5.80;99.90;;;;;;5036548;28;20484;-90
2021/12/25 08:21:32;;;;;;;7.55;2.45;;;6.00;99.90;;;;;;5036821;28;20053;-91
2021/12/25 08:24:01;;;;;;;6.93;1.65;;;6.50;99.90;;;;;;5035874;28;20510;-92
2021/12/25 08:26:29;;;;;;;5.95;2.00;;;5.80;99.90;;;;;;5035447;28;20351;-91
2021/12/25 08:28:56;;;;;;;5.78;2.25;;;6.10;99.90;;;;;;5036041;28;20488;-91
2021/12/25 08:31:23;;;;;;;4.30;2.15;;;5.50;99.90;;;;;;5034854;28;20056;-92
2021/12/25 08:33:52;;;;;;;3.65;1.83;;;5.80;99.90;;;;;;5035470;28;20049;-92
2021/12/25 08:36:19;;;;;;;11.00;2.80;;;5.50;99.90;;;;;;5035747;28;20057;-92
2021/12/25 08:38:46;;;;;;;4.97;2.17;;;5.90;99.90;;;;;;5035986;28;20049;-92
2021/12/25 08:41:13;;;;;;;4.40;1.95;;;5.80;99.90;;;;;;5035818;28;20052;-92
2021/12/25 08:43:46;;;;;;;7.43;1.77;;;5.50;99.90;;;;;;5036141;28;20049;-93
2021/12/25 08:46:17;;;;;;;8.98;2.67;;;5.70;99.90;;;;;;5035760;28;20053;-92
2021/12/25 08:48:48;;;;;;;3.08;1.63;;;5.60;99.90;;;;;;5035876;28;20059;-92
2021/12/25 08:51:16;;;;;;;8.32;1.90;;;5.40;99.90;;;;;;5036063;28;20052;-92
2021/12/25 08:53:43;;;;;;;3.58;1.65;;;5.60;99.90;;;;;;5035265;28;20053;-92
2021/12/25 08:56:13;;;;;;;6.85;1.77;;;5.60;99.90;;;;;;5035843;28;20064;-91
2021/12/25 08:58:40;;;;;;;9.27;2.88;;;5.40;99.90;;;;;;5035970;28;20049;-91
2021/12/25 09:01:09;;;;;;;5.47;2.58;;;5.40;99.90;;;;;;5035421;28;20054;-92
2021/12/25 09:03:36;;;;;;;5.50;1.48;;;5.40;99.90;;;;;;5027470;28;20073;-92
2021/12/25 09:06:04;;;;;;;6.57;1.55;;;5.30;99.90;;;;;;5035375;28;20057;-92
2021/12/25 09:08:33;;;;;;;10.93;2.60;;;5.50;99.90;;;;;;5035575;28;20059;-91
2021/12/25 09:11:01;;;;;;;13.90;2.13;;;5.30;99.90;;;;;;5035072;28;20041;-93
2021/12/25 09:13:29;;;;;;;6.25;2.03;;;5.40;99.90;;;;;;5036045;28;20053;-91
2021/12/25 09:15:56;;;;;;;2.78;1.52;;;5.30;99.90;;;;;;5035536;28;20045;-92
2021/12/25 09:18:23;;;;;;;5.22;0.90;;;5.30;99.90;;;;;;5035276;28;20046;-92
2021/12/25 09:20:50;;;;;;;2.13;0.93;;;5.40;99.90;;;;;;5035705;28;20058;-92
2021/12/25 09:23:18;;;;;;;4.65;0.77;;;5.30;99.90;;;;;;5035345;28;20057;-92
2021/12/25 09:25:47;;;;;;;2.33;0.85;;;5.60;99.90;;;;;;5035360;28;20050;-91
2021/12/25 09:28:14;;;;;;;3.97;1.23;;;5.20;99.90;;;;;;5024675;28;20046;-89
2021/12/25 09:30:42;;;;;;;5.85;1.83;;;5.20;99.90;;;;;;5014934;28;20046;-90
2021/12/25 09:33:09;;;;;;;8.95;1.13;;;5.30;99.90;;;;;;5015689;28;20054;-91
2021/12/25 09:35:37;;;;;;;7.32;1.38;;;5.50;99.90;;;;;;5016052;28;20100;-91
2021/12/25 09:38:04;;;;;;;4.70;1.20;;;4.30;99.90;;;;;;5021088;28;20030;-90
2021/12/25 09:40:32;;;;;;;10.82;2.10;;;5.70;99.90;;;;;;5033083;28;20038;-90
2021/12/25 09:43:00;;;;;;;5.70;1.25;;;5.50;99.90;;;;;;5034564;28;20050;-91
2021/12/25 09:45:28;;;;;;;1.75;1.10;;;5.30;99.90;;;;;;5038253;28;20054;-91
2021/12/25 09:47:55;;;;;;;12.55;1.90;;;5.10;99.90;;;;;;5021739;28;20054;-92
2021/12/25 09:50:22;;;;;;;6.10;0.80;;;5.20;99.90;;;;;;5019367;28;20041;-92
2021/12/25 09:52:49;;;;;;;11.60;1.45;;;5.10;99.90;;;;;;5018877;28;20060;-91
2021/12/25 09:55:18;;;;;;;5.65;1.30;;;5.50;99.90;;;;;;5019016;28;20514;-92
2021/12/25 09:57:46;;;;;;;12.63;1.83;;;5.40;99.90;;;;;;5019603;28;20113;-92
2021/12/25 10:00:20;;;;;;;10.90;2.28;;;5.20;99.90;;;;;;5019655;28;20045;-91
2021/12/25 10:02:52;;;;;;;5.75;1.75;;;5.10;99.90;;;;;;5019232;28;20088;-91
2021/12/25 10:05:27;;;;;;;11.32;2.05;;;5.40;99.90;;;;;;5018441;28;20432;-91
2021/12/25 10:08:03;;;;;;;16.27;1.65;;;5.50;99.90;;;;;;5018305;28;20052;-92
2021/12/25 10:10:40;;;;;;;17.27;1.92;;;5.20;99.90;;;;;;5018645;28;20054;-91
2021/12/25 10:13:22;;;;;;;7.78;1.00;;;5.20;99.90;;;;;;5018218;28;20413;-91
2021/12/25 10:15:51;;;;;;;5.82;1.15;;;5.30;99.90;;;;;;5017854;28;20519;-91
2021/12/25 10:18:25;;;;;;;;;;;5.60;99.90;;;;;;5018912;28;20061;-91
2021/12/25 10:20:55;;;;;;;8.73;1.52;;;5.30;99.90;;;;;;5017765;28;19935;-92
2021/12/25 10:23:29;;;;;;;2.97;0.85;;;5.30;99.90;;;;;;5018296;28;20103;-92
2021/12/25 10:26:00;;;;;;;5.50;1.33;;;5.50;99.90;;;;;;5027057;28;20057;-91
2021/12/25 10:28:33;;;;;;;5.50;1.52;;;5.40;99.90;;;;;;5037940;28;20053;-91
2021/12/25 10:31:04;;;;;;;5.85;1.00;;;5.60;99.90;;;;;;5037395;28;20049;-91
2021/12/25 10:33:36;;;;;;;8.15;1.42;;;5.50;99.90;;;;;;5037792;28;20484;-92
2021/12/25 10:36:09;;;;;;;7.45;1.95;;;5.40;99.90;;;;;;5037115;28;20081;-91
2021/12/25 10:38:38;;;;;;;8.80;1.83;;;5.50;99.90;;;;;;5030240;28;20046;-92
2021/12/25 10:41:28;;;;;;;10.18;1.25;;;5.60;99.90;;;;;;5036981;28;20045;-91
2021/12/25 10:44:12;;;;;;;3.00;1.42;;;5.50;99.90;;;;;;5033354;28;20073;-92
2021/12/25 10:46:56;;;;;;;9.32;1.35;;;5.60;99.90;;;;;;5036705;28;20392;-91
2021/12/25 10:49:25;;;;;;;2.28;0.82;;;5.60;99.90;;;;;;5036856;28;20053;-92
2021/12/25 10:51:52;;;;;;;8.55;1.73;;;5.30;99.90;;;;;;5037323;28;20045;-92
2021/12/25 10:54:19;;;;;;;4.82;0.70;;;5.40;99.90;;;;;;5038476;28;20049;-92
2021/12/25 10:56:51;;;;;;;4.50;1.30;;;5.30;99.90;;;;;;5038097;28;20059;-91
2021/12/25 10:59:19;;;;;;;6.72;0.95;;;4.50;99.90;;;;;;5037156;28;20041;-91
2021/12/25 11:01:49;;;;;;;9.65;2.03;;;4.20;99.90;;;;;;5037051;28;20554;-91
2021/12/25 11:04:30;;;;;;;7.70;1.40;;;5.20;99.90;;;;;;5038090;28;20045;-91
2021/12/25 11:06:59;;;;;;;11.73;2.10;;;5.30;99.90;;;;;;5036957;28;20053;-90
2021/12/25 11:09:26;;;;;;;5.93;1.45;;;5.50;99.90;;;;;;5036772;28;20050;-91
2021/12/25 11:12:19;;;;;;;2.85;0.90;;;5.40;99.90;;;;;;5037468;28;20111;-90
2021/12/25 11:14:47;;;;;;;7.35;1.05;;;5.40;99.90;;;;;;5020438;28;20057;-90
2021/12/25 11:17:32;;;;;;;8.32;1.13;;;5.50;99.90;;;;;;5037220;28;20049;-90
2021/12/25 11:20:03;;;;;;;14.15;2.15;;;5.50;99.90;;;;;;5036819;28;20060;-91
2021/12/25 11:22:48;;;;;;;17.40;2.60;;;5.50;99.90;;;;;;5037491;28;20085;-91
2021/12/25 11:25:16;;;;;;;32.33;2.88;;;5.60;99.90;;;;;;5037307;28;20054;-91
2021/12/25 11:27:45;;;;;;;18.27;1.38;;;5.60;99.90;;;;;;5038022;28;20045;-92
2021/12/25 11:30:15;;;;;;;;;;;5.60;99.90;;;;;;5037705;28;20068;-91
2021/12/25 11:32:42;;;;;;;9.35;0.90;;;5.90;99.90;;;;;;5037809;28;19921;-91
2021/12/25 11:35:15;;;;;;;13.15;1.60;;;5.70;99.90;;;;;;5028610;28;20080;-91
2021/12/25 11:37:56;;;;;;;9.13;1.17;;;5.70;99.90;;;;;;5017068;28;20067;-91
2021/12/25 11:40:30;;;;;;;9.32;1.50;;;5.80;99.90;;;;;;5017475;28;20049;-91
2021/12/25 11:43:00;;;;;;;12.80;1.95;;;5.80;99.90;;;;;;5023971;28;20046;-93
2021/12/25 11:45:32;;;;;;;14.15;0.93;;;5.50;99.90;;;;;;5031795;28;20057;-90
2021/12/25 11:48:01;;;;;;;14.50;1.98;;;5.40;99.90;;;;;;5039575;28;20036;-90
2021/12/25 11:50:41;;;;;;;7.88;1.25;;;5.30;99.90;;;;;;5034106;28;20038;-91
2021/12/25 11:53:17;;;;;;;9.23;1.55;;;5.40;99.90;;;;;;5020549;28;20085;-91
2021/12/25 11:58:48;;;;;;;14.73;3.67;;;5.50;99.90;;;;;;4997392;28;20155;-92
2021/12/25 12:01:40;;;;;;;5.10;1.05;;;5.70;99.90;;;;;;5018451;28;20046;-91
2021/12/25 12:04:15;;;;;;;10.88;1.40;;;5.60;99.90;;;;;;5015373;28;20129;-91
2021/12/25 12:07:06;;;;;;;10.68;2.60;;;5.60;99.90;;;;;;5017287;28;20054;-91
2021/12/25 12:09:50;;;;;;;12.05;2.10;;;5.60;99.90;;;;;;5018494;28;20049;-91
2021/12/25 12:12:22;;;;;;;3.13;0.95;;;5.80;99.90;;;;;;5018620;28;20187;-90
2021/12/25 12:15:15;;;;;;;4.30;0.90;;;5.60;99.90;;;;;;5018752;28;20050;-91
2021/12/25 12:17:49;;;;;;;7.38;1.40;;;5.50;99.90;;;;;;5001477;28;20389;-91
2021/12/25 12:20:36;;;;;;;6.97;1.85;;;5.50;99.90;;;;;;5035871;28;20045;-91
2021/12/25 12:23:37;;;;;;;5.78;1.55;;;4.70;99.90;;;;;;5036876;28;20057;-90
2021/12/25 12:26:08;;;;;;;7.32;1.55;;;5.50;99.90;;;;;;5037247;28;20510;-91
2021/12/25 12:28:50;;;;;;;8.50;1.83;;;5.70;99.90;;;;;;5037883;28;20049;-91
2021/12/25 12:31:42;;;;;;;14.90;3.08;;;5.40;99.90;;;;;;5036196;28;20045;-91
2021/12/25 12:34:34;;;;;;;18.25;2.75;;;3.80;99.90;;;;;;5036192;28;20045;-92
2021/12/25 12:37:30;;;;;;;8.25;2.33;;;5.30;99.90;;;;;;5035858;28;20054;-92
2021/12/25 12:40:24;;;;;;;11.27;2.00;;;5.20;99.90;;;;;;5035322;28;20049;-92
2021/12/25 12:42:56;;;;;;;6.63;2.05;;;5.40;99.90;;;;;;5036628;28;20152;-92
2021/12/25 12:45:26;;;;;;;10.15;2.28;;;5.90;99.90;;;;;;5036298;28;20100;-92
2021/12/25 12:48:13;;;;;;;10.38;1.75;;;5.50;99.90;;;;;;5036049;28;20087;-91
2021/12/25 12:50:42;;;;;;;7.32;2.25;;;5.40;99.90;;;;;;5035686;28;20093;-93
2021/12/25 12:53:13;;;;;;;12.60;3.30;;;5.40;99.90;;;;;;5035704;28;20108;-92
2021/12/25 12:55:58;;;;;;;7.40;1.67;;;5.40;99.90;;;;;;5035771;28;20058;-91
2021/12/25 12:58:32;;;;;;;10.18;2.50;;;5.30;99.90;;;;;;5035276;28;20140;-91
2021/12/25 13:01:09;;;;;;;11.35;2.05;;;5.20;99.90;;;;;;5035721;28;20076;-91
2021/12/25 13:03:38;;;;;;;9.07;2.22;;;5.30;99.90;;;;;;5035473;28;20053;-92
2021/12/25 13:06:12;;;;;;;10.82;2.88;;;5.30;99.90;;;;;;5035431;28;20484;-91
2021/12/25 13:08:41;;;;;;;8.10;1.50;;;5.30;99.90;;;;;;5036083;28;20052;-91
2021/12/25 13:11:16;;;;;;;9.93;1.75;;;5.20;99.90;;;;;;5035651;28;20049;-91
2021/12/25 13:13:52;;;;;;;9.05;2.53;;;5.40;99.90;;;;;;5035288;28;20049;-91
2021/12/25 13:16:23;;;;;;;13.38;3.63;;;5.20;99.90;;;;;;5035833;28;20128;-93
2021/12/25 13:18:57;;;;;;;6.97;2.58;;;5.60;99.90;;;;;;5038355;28;20053;-91
2021/12/25 13:21:28;;;;;;;7.15;2.25;;;5.30;99.90;;;;;;5040482;28;20076;-91
2021/12/25 13:24:11;;;;;;;14.18;2.00;;;5.50;99.90;;;;;;5040416;28;20076;-91
2021/12/25 13:26:46;;;;;;;10.75;2.15;;;4.60;99.90;;;;;;5030170;28;20455;-90
2021/12/25 13:29:19;;;;;;;6.35;2.35;;;5.30;99.90;;;;;;5039588;28;20128;-90
2021/12/25 13:31:48;;;;;;;5.68;1.63;;;5.20;99.90;;;;;;5039372;28;20465;-91
2021/12/25 13:34:20;;;;;;;9.80;2.55;;;5.40;99.90;;;;;;5038399;28;20049;-92
2021/12/25 13:36:49;;;;;;;13.23;1.98;;;5.50;99.90;;;;;;5039238;28;20455;-91
2021/12/25 13:39:24;;;;;;;10.55;2.58;;;5.50;99.90;;;;;;5039368;28;20059;-91
2021/12/25 13:41:55;;;;;;;11.20;2.08;;;5.80;99.90;;;;;;5039299;28;20045;-92
2021/12/25 13:44:25;;;;;;;12.85;3.63;;;5.10;99.90;;;;;;5039589;28;20091;-91
2021/12/25 13:47:01;;;;;;;8.57;2.15;;;5.40;99.90;;;;;;5056740;28;20053;-91
2021/12/25 13:49:35;;;;;;;19.67;3.72;;;5.40;99.90;;;;;;5057140;28;20064;-91
2021/12/25 13:52:05;;;;;;;7.10;1.73;;;5.20;99.90;;;;;;5058324;28;20079;-90
2021/12/25 13:54:33;;;;;;;10.77;3.03;;;5.10;99.90;;;;;;5043381;28;20116;-91
2021/12/25 13:57:04;;;;;;;14.55;2.58;;;5.30;99.90;;;;;;5039287;28;20088;-91
2021/12/25 13:59:31;;;;;;;4.50;1.23;;;5.60;99.90;;;;;;5039104;28;20045;-91
2021/12/25 14:02:02;;;;;;;21.95;3.88;;;5.10;99.90;;;;;;5038714;28;20488;-92
2021/12/25 14:04:30;;;;;;;4.72;1.88;;;5.40;99.90;;;;;;5036996;28;20081;-92
2021/12/25 14:06:59;;;;;;;11.20;1.92;;;5.40;99.90;;;;;;5038294;28;20145;-92
2021/12/25 14:09:28;;;;;;;17.55;3.10;;;5.00;99.90;;;;;;5038501;28;20052;-92
2021/12/25 14:11:57;;;;;;;;;;;5.30;99.90;;;;;;5038688;28;20053;-91
2021/12/25 14:14:28;;;;;;;7.97;2.40;;;5.30;99.90;;;;;;5038366;28;19920;-92
2021/12/25 14:16:58;;;;;;;5.15;2.05;;;5.00;99.90;;;;;;5038708;28;20045;-91